Pagrindinis puslapis
METAR-TAF:

METAR-TAF

Oro uostai :

Middleton Island, Aliaska, Jungtinės Amerikos Valstijos

platuma: 59-26N, ilguma: 146-18W, Aukštis: 27 m

Dabartinis oras

Ataskaita buvo paskelbta 1 valandą ir 0 minutes, ne 18:51 UTC
Vėjas 3 kt iš Rytų/Šiaurės Rytų
Temperatūra 1°C
Drėgmė 86%
Slėgis 1011 hPa
Matomumas: 16.1 km
Giedras dangus

METAR: PAMD 161851Z AUTO 07003KT 10SM CLR 01/M01 A2986 RMK AO2 SLP099 T00111011 FZRANO

Laikas: 10:51 (19:51 UTC)


TAF: trūkstamas

Orai ataskaitas ir orų prognozės (METAR, TAF).

turimą stotys yra geltonos ir raudonos taškus žemėlapyje.

Perkelti pele per norėdami pamatyti stoties vardą.

Tada spustelėkite, norėdami matyti oro stebėjimo ir prognozės.

Norėdami pakeisti žemėlapį: spustelėkite ant žalios mygtukų su juodo kryžiaus žemyn,; žalią mygtuką su brūkšneliu, jei norite nutolinti; arba žalių rodyklių gretimoms žemėlapius.


METAR-TAF: